createdAt,value
2019-06-26T00:00:36.961Z,7.67
2019-06-26T00:03:05.940Z,7.30
2019-06-26T00:05:35.024Z,7.17
2019-06-26T00:08:04.015Z,7.90
2019-06-26T00:10:33.142Z,7.30
2019-06-26T00:13:02.133Z,7.40
2019-06-26T00:15:31.299Z,7.87
2019-06-26T00:18:00.396Z,8.80
2019-06-26T00:20:29.428Z,8.73
2019-06-26T00:22:58.426Z,8.70
2019-06-26T00:25:27.427Z,8.23
2019-06-26T00:27:56.482Z,8.57
2019-06-26T00:30:25.511Z,7.77
2019-06-26T00:32:54.524Z,7.93
2019-06-26T00:35:23.636Z,7.83
2019-06-26T00:37:52.744Z,8.30
2019-06-26T00:40:21.731Z,7.63
2019-06-26T00:42:50.799Z,7.97
2019-06-26T00:45:19.851Z,7.87
2019-06-26T00:47:48.768Z,7.40
2019-06-26T00:50:17.776Z,8.23
2019-06-26T00:52:46.754Z,7.83
2019-06-26T00:55:15.912Z,8.17
2019-06-26T00:57:44.903Z,8.03
2019-06-26T01:00:14.969Z,8.47
2019-06-26T01:02:43.959Z,7.83
2019-06-26T01:05:13.704Z,7.70
2019-06-26T01:07:42.652Z,8.47
2019-06-26T01:10:11.848Z,7.70
2019-06-26T01:12:40.846Z,7.80
2019-06-26T01:15:09.926Z,7.80
2019-06-26T01:17:38.956Z,7.67
2019-06-26T01:20:07.985Z,7.77
2019-06-26T01:22:37.033Z,6.23
2019-06-26T01:25:05.957Z,6.67
2019-06-26T01:27:34.786Z,6.80
2019-06-26T01:30:03.927Z,7.00
2019-06-26T01:32:32.925Z,7.37
2019-06-26T01:35:01.981Z,6.53
2019-06-26T01:37:30.951Z,8.23
2019-06-26T01:39:59.850Z,7.30
2019-06-26T01:42:28.845Z,7.73
2019-06-26T01:44:57.846Z,7.73
2019-06-26T01:47:26.833Z,7.47
2019-06-26T01:49:55.848Z,7.40
2019-06-26T01:52:24.890Z,8.57
2019-06-26T01:54:53.894Z,6.90
2019-06-26T01:57:23.266Z,7.70
2019-06-26T01:59:52.255Z,8.23
2019-06-26T02:02:21.298Z,8.03
2019-06-26T02:04:50.381Z,7.73
2019-06-26T02:07:19.374Z,9.00
2019-06-26T02:09:48.475Z,8.10
2019-06-26T02:12:17.463Z,8.70
2019-06-26T02:14:46.553Z,8.67
2019-06-26T02:17:15.567Z,9.93
2019-06-26T02:19:44.647Z,8.53
2019-06-26T02:22:13.645Z,8.60
2019-06-26T02:24:42.686Z,9.63
2019-06-26T02:27:11.665Z,8.30
2019-06-26T02:29:40.643Z,8.70
2019-06-26T02:32:09.604Z,8.00
2019-06-26T02:34:38.695Z,8.50
2019-06-26T02:37:07.714Z,8.87
2019-06-26T02:39:36.707Z,8.57
2019-06-26T02:42:05.842Z,8.93
2019-06-26T02:44:52.444Z,7.87
2019-06-26T02:47:18.697Z,8.80
2019-06-26T02:49:36.280Z,8.17
2019-06-26T02:52:05.149Z,8.27
2019-06-26T02:54:34.225Z,7.70
2019-06-26T02:57:03.339Z,8.77
2019-06-26T02:59:32.312Z,7.73
2019-06-26T03:02:01.306Z,8.10
2019-06-26T03:04:30.281Z,8.17
2019-06-26T03:06:59.435Z,8.10
2019-06-26T03:09:28.506Z,8.77
2019-06-26T03:11:57.488Z,8.30
2019-06-26T03:14:26.476Z,8.37
2019-06-26T03:16:55.390Z,7.67
2019-06-26T03:19:24.291Z,7.90
2019-06-26T03:21:53.158Z,7.60
2019-06-26T03:24:22.135Z,7.80
2019-06-26T03:26:51.146Z,7.93
2019-06-26T03:29:20.209Z,7.50
2019-06-26T03:31:49.340Z,6.93
2019-06-26T03:34:18.311Z,6.63
2019-06-26T03:36:47.508Z,6.90
2019-06-26T03:39:16.555Z,7.50
2019-06-26T03:41:45.561Z,7.23
2019-06-26T03:44:14.550Z,6.93
2019-06-26T03:46:43.600Z,7.80
2019-06-26T03:49:12.641Z,7.80
2019-06-26T03:51:41.728Z,7.43
2019-06-26T03:54:10.788Z,8.47
2019-06-26T03:56:39.831Z,8.10
2019-06-26T03:59:08.839Z,8.70
2019-06-26T04:01:37.782Z,8.43
2019-06-26T04:04:06.838Z,7.60
2019-06-26T04:06:35.767Z,8.67
2019-06-26T04:09:05.936Z,8.03
2019-06-26T04:11:34.904Z,9.23
2019-06-26T04:14:03.961Z,8.47
2019-06-26T04:16:32.979Z,9.10
2019-06-26T04:19:01.939Z,8.67
2019-06-26T04:21:30.947Z,8.40
2019-06-26T04:24:00.149Z,9.20
2019-06-26T04:26:29.235Z,9.50
2019-06-26T04:28:58.213Z,10.00
2019-06-26T04:31:27.255Z,10.20
2019-06-26T04:33:56.168Z,9.40
2019-06-26T04:36:25.160Z,8.70
2019-06-26T04:38:54.222Z,8.00
2019-06-26T04:41:23.316Z,7.87
2019-06-26T04:43:52.411Z,7.80
2019-06-26T04:46:21.809Z,7.70
2019-06-26T04:48:51.028Z,8.67
2019-06-26T04:51:20.162Z,8.13
2019-06-26T04:53:49.115Z,7.97
2019-06-26T04:56:18.241Z,7.53
2019-06-26T04:58:47.385Z,7.10
2019-06-26T05:01:16.447Z,8.43
2019-06-26T05:03:45.447Z,8.27
2019-06-26T05:06:14.548Z,7.93
2019-06-26T05:08:43.673Z,7.30
2019-06-26T05:11:13.084Z,7.67
2019-06-26T05:13:42.216Z,7.60
2019-06-26T05:16:15.755Z,7.37
2019-06-26T05:18:42.077Z,8.30
2019-06-26T05:21:11.144Z,8.10
2019-06-26T05:23:40.112Z,6.77
2019-06-26T05:26:09.148Z,7.90
2019-06-26T05:28:38.138Z,8.10
2019-06-26T05:31:07.149Z,8.30
2019-06-26T05:33:36.252Z,7.97
2019-06-26T05:36:05.314Z,8.50
2019-06-26T05:38:34.443Z,8.73
2019-06-26T05:41:03.479Z,9.03
2019-06-26T05:43:32.503Z,9.33
2019-06-26T05:46:01.544Z,9.20
2019-06-26T05:48:30.477Z,9.43
2019-06-26T05:50:59.417Z,9.60
2019-06-26T05:53:28.555Z,8.33
2019-06-26T05:55:57.575Z,8.50
2019-06-26T05:58:26.623Z,8.63
2019-06-26T06:00:55.506Z,8.37
2019-06-26T06:03:24.667Z,9.10
2019-06-26T06:05:53.792Z,8.30
2019-06-26T06:08:22.813Z,8.20
2019-06-26T06:10:51.787Z,8.60
2019-06-26T06:13:20.861Z,7.57
2019-06-26T06:15:49.837Z,7.80
2019-06-26T06:18:18.905Z,7.90
2019-06-26T06:20:47.954Z,7.67
2019-06-26T06:23:17.075Z,8.30
2019-06-26T06:25:46.066Z,8.03
2019-06-26T06:28:15.045Z,10.63
2019-06-26T06:30:43.860Z,11.90
2019-06-26T06:33:12.864Z,11.30
2019-06-26T06:35:41.837Z,10.87
2019-06-26T06:38:10.927Z,11.53
2019-06-26T06:40:39.881Z,11.87
2019-06-26T06:43:08.924Z,11.30
2019-06-26T06:45:37.831Z,11.67
2019-06-26T06:48:06.967Z,12.37
2019-06-26T06:50:36.051Z,13.83
2019-06-26T06:53:05.086Z,13.23
2019-06-26T06:55:34.096Z,15.10
2019-06-26T06:58:03.121Z,17.40
2019-06-26T07:00:32.188Z,16.20
2019-06-26T07:03:01.185Z,15.57
2019-06-26T07:05:30.411Z,16.50
2019-06-26T07:07:59.344Z,16.67
2019-06-26T07:10:28.506Z,18.17
2019-06-26T07:12:57.526Z,19.83
2019-06-26T07:15:26.567Z,18.40
2019-06-26T07:17:55.656Z,18.77
2019-06-26T07:20:24.583Z,18.33
2019-06-26T07:22:54.063Z,17.63
2019-06-26T07:25:23.085Z,17.43
2019-06-26T07:27:52.122Z,17.80
2019-06-26T07:30:23.622Z,16.97
2019-06-26T07:32:52.571Z,15.53
2019-06-26T07:35:21.739Z,16.30
2019-06-26T07:37:50.870Z,16.67
2019-06-26T07:40:20.009Z,17.07
2019-06-26T07:42:49.195Z,17.63
2019-06-26T07:45:18.214Z,16.27
2019-06-26T07:47:47.212Z,16.33
2019-06-26T07:50:16.513Z,18.70
2019-06-26T07:52:45.412Z,17.00
2019-06-26T07:55:14.695Z,17.07
2019-06-26T07:57:43.698Z,16.63
2019-06-26T08:00:12.626Z,16.70
2019-06-26T08:02:41.979Z,16.00
2019-06-26T08:05:11.447Z,17.30
2019-06-26T08:07:40.539Z,16.23
2019-06-26T08:10:09.616Z,15.47
2019-06-26T08:12:38.627Z,17.20
2019-06-26T08:15:08.995Z,16.93
2019-06-26T08:17:38.065Z,16.90
2019-06-26T08:20:07.155Z,15.93
2019-06-26T08:22:36.159Z,16.70
2019-06-26T08:25:05.585Z,15.27
2019-06-26T08:27:34.616Z,15.67
2019-06-26T08:30:03.547Z,15.17
2019-06-26T08:32:32.623Z,15.83
2019-06-26T08:35:01.765Z,16.30
2019-06-26T08:37:30.782Z,16.10
2019-06-26T08:39:59.910Z,15.90
2019-06-26T08:42:28.904Z,17.10
2019-06-26T08:44:57.835Z,15.50
2019-06-26T08:47:26.745Z,16.70
2019-06-26T08:49:55.753Z,17.23
2019-06-26T08:52:24.868Z,17.13
2019-06-26T08:54:53.878Z,14.63
2019-06-26T08:57:22.893Z,16.90
2019-06-26T08:59:57.388Z,16.30
2019-06-26T09:02:26.401Z,16.80
2019-06-26T09:04:55.738Z,14.10
2019-06-26T09:07:25.681Z,13.67
2019-06-26T09:09:54.750Z,13.07
2019-06-26T09:12:23.712Z,13.13
2019-06-26T09:14:52.825Z,12.70
2019-06-26T09:17:21.870Z,12.13
2019-06-26T09:19:50.868Z,11.30
2019-06-26T09:22:19.943Z,12.00
2019-06-26T09:24:48.991Z,10.63
2019-06-26T09:27:18.008Z,11.20
2019-06-26T09:29:46.960Z,11.33
2019-06-26T09:32:15.923Z,10.70
2019-06-26T09:34:44.929Z,10.70
2019-06-26T09:37:13.902Z,11.80
2019-06-26T09:39:43.014Z,13.63
2019-06-26T09:42:12.111Z,11.90
2019-06-26T09:44:41.155Z,12.13
2019-06-26T09:47:10.358Z,12.83
2019-06-26T09:49:39.399Z,13.40
2019-06-26T09:52:08.552Z,12.03
2019-06-26T09:54:37.603Z,12.17
2019-06-26T09:57:06.656Z,13.10
2019-06-26T09:59:35.793Z,11.77
2019-06-26T10:02:04.810Z,11.73
2019-06-26T10:04:33.860Z,12.30
2019-06-26T10:07:02.892Z,11.53
2019-06-26T10:09:32.068Z,12.27
2019-06-26T10:12:01.107Z,12.03
2019-06-26T10:14:46.744Z,11.10
2019-06-26T10:17:01.238Z,11.40
2019-06-26T10:19:30.173Z,11.40
2019-06-26T10:21:59.238Z,11.23
2019-06-26T10:24:28.410Z,10.07
2019-06-26T10:26:57.394Z,11.07
2019-06-26T10:29:26.515Z,11.13
2019-06-26T10:31:55.456Z,10.37
2019-06-26T10:34:24.568Z,11.20
2019-06-26T10:36:53.664Z,11.73
2019-06-26T10:39:22.746Z,10.53
2019-06-26T10:41:54.916Z,11.10
2019-06-26T10:44:22.404Z,10.90
2019-06-26T10:46:51.664Z,12.63
2019-06-26T10:49:27.105Z,11.60
2019-06-26T10:51:51.368Z,11.03
2019-06-26T10:54:20.391Z,10.30
2019-06-26T10:56:49.455Z,10.90
2019-06-26T10:59:18.470Z,11.23
2019-06-26T11:01:47.483Z,11.40
2019-06-26T11:04:16.468Z,12.03
2019-06-26T11:06:45.468Z,10.53
2019-06-26T11:09:15.003Z,11.23
2019-06-26T11:11:43.924Z,10.50
2019-06-26T11:14:13.065Z,10.50
2019-06-26T11:16:42.103Z,10.83
2019-06-26T11:19:11.237Z,10.33
2019-06-26T11:21:40.243Z,10.43
2019-06-26T11:24:09.270Z,10.50
2019-06-26T11:26:38.389Z,9.90
2019-06-26T11:29:07.382Z,10.30
2019-06-26T11:31:36.367Z,9.60
2019-06-26T11:34:05.428Z,9.37
2019-06-26T11:36:34.383Z,9.20
2019-06-26T11:39:04.589Z,9.65
2019-06-26T11:41:33.672Z,9.70
2019-06-26T11:44:04.257Z,9.57
2019-06-26T11:46:33.382Z,10.87
2019-06-26T11:49:02.613Z,9.60
2019-06-26T11:51:31.704Z,10.00
2019-06-26T11:54:00.711Z,10.20
2019-06-26T11:56:29.797Z,9.70
2019-06-26T11:58:58.746Z,10.10
2019-06-26T12:01:27.916Z,9.20
2019-06-26T12:03:57.028Z,10.00
2019-06-26T12:06:27.387Z,10.67
2019-06-26T12:08:56.571Z,10.13
2019-06-26T12:11:25.742Z,9.63
2019-06-26T12:13:54.908Z,10.30
2019-06-26T12:16:23.974Z,8.70
2019-06-26T12:18:55.471Z,10.33
2019-06-26T12:21:24.607Z,10.40
2019-06-26T12:23:53.589Z,9.70
2019-06-26T12:26:22.730Z,9.63
2019-06-26T12:28:51.901Z,9.40
2019-06-26T12:31:20.768Z,9.90
2019-06-26T12:33:49.849Z,9.60
2019-06-26T12:36:18.998Z,10.20
2019-06-26T12:38:48.157Z,10.57
2019-06-26T12:41:17.162Z,9.87
2019-06-26T12:43:46.315Z,9.80
2019-06-26T12:46:18.110Z,9.73
2019-06-26T12:48:46.270Z,9.83
2019-06-26T12:51:15.233Z,10.87
2019-06-26T12:53:44.410Z,9.87
2019-06-26T12:56:15.382Z,10.17
2019-06-26T12:58:44.388Z,10.77
2019-06-26T13:01:13.476Z,11.40
2019-06-26T13:03:42.647Z,10.70
2019-06-26T13:06:11.909Z,10.43
2019-06-26T13:08:40.904Z,10.30
2019-06-26T13:11:09.994Z,9.53
2019-06-26T13:13:39.197Z,11.20
2019-06-26T13:16:08.360Z,10.43
2019-06-26T13:18:37.360Z,9.60
2019-06-26T13:21:06.555Z,10.53
2019-06-26T13:23:35.745Z,10.77
2019-06-26T13:26:04.898Z,11.30
2019-06-26T13:28:34.058Z,11.33
2019-06-26T13:31:03.348Z,9.90
2019-06-26T13:33:32.692Z,10.60
2019-06-26T13:36:01.911Z,10.50
2019-06-26T13:38:31.214Z,11.75
2019-06-26T13:41:00.344Z,10.78
2019-06-26T13:43:29.524Z,11.93
2019-06-26T13:45:58.907Z,11.28
2019-06-26T13:48:28.071Z,11.55
2019-06-26T13:51:08.901Z,9.85
2019-06-26T13:53:27.958Z,10.95
2019-06-26T13:55:57.174Z,10.65
2019-06-26T13:58:26.240Z,10.23
2019-06-26T14:00:55.285Z,9.68
2019-06-26T14:03:24.459Z,9.98
2019-06-26T14:05:53.663Z,11.60
2019-06-26T14:08:22.650Z,11.22
2019-06-26T14:10:51.742Z,11.00
2019-06-26T14:13:20.903Z,11.63
2019-06-26T14:15:50.017Z,12.25
2019-06-26T14:18:19.108Z,11.53
2019-06-26T14:20:48.086Z,12.45
2019-06-26T14:23:17.097Z,11.48
2019-06-26T14:25:46.222Z,11.83
2019-06-26T14:28:15.286Z,12.43
2019-06-26T14:30:44.479Z,11.68
2019-06-26T14:33:14.120Z,12.47
2019-06-26T14:35:43.296Z,12.15
2019-06-26T14:38:12.412Z,11.68
2019-06-26T14:40:41.555Z,11.55
2019-06-26T14:43:10.674Z,11.50
2019-06-26T14:45:39.869Z,11.18
2019-06-26T14:48:08.940Z,11.18
2019-06-26T14:50:37.972Z,11.83
2019-06-26T14:53:07.224Z,11.63
2019-06-26T14:55:36.328Z,11.08
2019-06-26T14:58:05.240Z,12.40
2019-06-26T15:00:34.342Z,12.40
2019-06-26T15:03:03.463Z,11.33
2019-06-26T15:05:32.603Z,11.55
2019-06-26T15:08:02.746Z,10.98
2019-06-26T15:10:31.907Z,11.90
2019-06-26T15:13:00.915Z,11.28
2019-06-26T15:15:29.961Z,11.15
2019-06-26T15:17:59.186Z,12.10
2019-06-26T15:20:28.338Z,11.90
2019-06-26T15:22:58.824Z,11.25
2019-06-26T15:25:28.066Z,11.83
2019-06-26T15:27:57.194Z,11.43
2019-06-26T15:30:26.370Z,11.88
2019-06-26T15:32:55.448Z,10.93
2019-06-26T15:35:24.592Z,11.97
2019-06-26T15:37:53.968Z,13.10
2019-06-26T15:40:23.013Z,12.35
2019-06-26T15:42:52.111Z,12.13
2019-06-26T15:45:21.763Z,12.58
2019-06-26T15:47:50.806Z,12.50
2019-06-26T15:50:19.956Z,12.37
2019-06-26T15:52:49.299Z,13.63
2019-06-26T15:55:18.367Z,13.47
2019-06-26T15:57:47.477Z,13.30
2019-06-26T16:00:16.575Z,14.03
2019-06-26T16:02:45.783Z,14.60
2019-06-26T16:05:14.886Z,15.50
2019-06-26T16:07:44.315Z,16.73
2019-06-26T16:10:13.393Z,16.43
2019-06-26T16:12:42.352Z,15.80
2019-06-26T16:15:11.756Z,17.30
2019-06-26T16:17:47.010Z,16.60
2019-06-26T16:20:16.093Z,16.77
2019-06-26T16:22:45.167Z,16.07
2019-06-26T16:25:14.164Z,17.00
2019-06-26T16:27:43.690Z,15.80
2019-06-26T16:30:14.438Z,16.60
2019-06-26T16:32:43.522Z,16.37
2019-06-26T16:35:12.625Z,16.47
2019-06-26T16:37:41.699Z,17.27
2019-06-26T16:40:10.731Z,16.73
2019-06-26T16:42:39.900Z,17.10
2019-06-26T16:45:08.987Z,17.67
2019-06-26T16:47:37.983Z,17.07
2019-06-26T16:50:07.061Z,17.17
2019-06-26T16:52:48.465Z,16.50
2019-06-26T16:55:06.829Z,15.90
2019-06-26T16:57:35.888Z,16.60
2019-06-26T17:00:09.882Z,17.40
2019-06-26T17:02:36.524Z,16.20
2019-06-26T17:05:05.725Z,17.03
2019-06-26T17:07:34.697Z,18.03
2019-06-26T17:10:03.879Z,16.37
2019-06-26T17:12:33.094Z,16.43
2019-06-26T17:15:04.272Z,15.93
2019-06-26T17:17:32.922Z,17.17
2019-06-26T17:20:01.982Z,16.10
2019-06-26T17:22:31.016Z,16.10
2019-06-26T17:25:00.149Z,16.27
2019-06-26T17:27:29.398Z,17.07
2019-06-26T17:29:58.750Z,16.60
2019-06-26T17:32:28.143Z,16.40
2019-06-26T17:34:57.217Z,17.27
2019-06-26T17:37:26.176Z,17.30
2019-06-26T17:39:55.509Z,16.57
2019-06-26T17:42:24.501Z,17.73
2019-06-26T17:44:53.523Z,15.67
2019-06-26T17:47:25.014Z,16.73
2019-06-26T17:50:05.257Z,15.77
2019-06-26T17:52:39.043Z,15.50
2019-06-26T17:55:08.348Z,16.03
2019-06-26T17:57:37.339Z,15.00
2019-06-26T18:00:07.325Z,15.50
2019-06-26T18:02:36.389Z,14.03
2019-06-26T18:05:05.414Z,13.97
2019-06-26T18:07:35.642Z,14.83
2019-06-26T18:10:05.135Z,13.40
2019-06-26T18:12:34.310Z,13.33
2019-06-26T18:15:11.506Z,14.37
2019-06-26T18:17:48.334Z,15.30
2019-06-26T18:20:19.905Z,14.23
2019-06-26T18:23:06.451Z,14.10
2019-06-26T18:26:24.435Z,14.40
2019-06-26T18:28:55.776Z,14.77
2019-06-26T18:31:24.716Z,14.33
2019-06-26T18:33:53.952Z,15.10
2019-06-26T18:36:22.959Z,14.30
2019-06-26T18:38:59.374Z,14.63
2019-06-26T18:41:28.404Z,14.83
2019-06-26T18:43:58.881Z,14.50
2019-06-26T18:46:27.932Z,14.20
2019-06-26T18:48:57.201Z,14.43
2019-06-26T18:51:26.262Z,14.47
2019-06-26T18:53:55.333Z,14.07
2019-06-26T18:56:26.911Z,13.93
2019-06-26T18:58:56.211Z,13.93
2019-06-26T19:01:25.354Z,14.73
2019-06-26T19:03:54.441Z,14.07
2019-06-26T19:06:23.624Z,14.90
2019-06-26T19:08:52.624Z,14.23
2019-06-26T19:11:21.659Z,14.60
2019-06-26T19:13:50.731Z,13.53
2019-06-26T19:16:19.687Z,14.60
2019-06-26T19:18:48.764Z,14.40
2019-06-26T19:21:17.800Z,14.00
2019-06-26T19:23:46.899Z,14.43
2019-06-26T19:26:15.850Z,15.90
2019-06-26T19:28:44.895Z,14.23
2019-06-26T19:31:14.043Z,14.50
2019-06-26T19:33:45.632Z,15.43
2019-06-26T19:36:14.140Z,15.30
2019-06-26T19:38:43.325Z,14.93
2019-06-26T19:41:12.397Z,14.07
2019-06-26T19:43:41.568Z,15.40
2019-06-26T19:46:10.601Z,16.00
2019-06-26T19:48:39.696Z,14.40
2019-06-26T19:51:08.547Z,14.90
2019-06-26T19:53:37.622Z,14.10
2019-06-26T19:56:06.695Z,15.10
2019-06-26T19:58:35.786Z,15.50
2019-06-26T20:01:04.793Z,14.63
2019-06-26T20:03:33.816Z,15.13
2019-06-26T20:06:03.035Z,14.70
2019-06-26T20:08:32.099Z,15.90
2019-06-26T20:11:01.154Z,16.70
2019-06-26T20:13:30.322Z,16.30
2019-06-26T20:15:59.174Z,15.10
2019-06-26T20:18:28.307Z,15.70
2019-06-26T20:20:57.516Z,15.47
2019-06-26T20:23:26.868Z,15.50
2019-06-26T20:25:55.964Z,15.40
2019-06-26T20:28:25.072Z,14.43
2019-06-26T20:30:54.211Z,14.80
2019-06-26T20:33:23.175Z,15.60
2019-06-26T20:35:52.267Z,14.30
2019-06-26T20:38:21.962Z,15.07
2019-06-26T20:40:51.059Z,16.40
2019-06-26T20:43:20.931Z,16.03
2019-06-26T20:45:50.561Z,15.37
2019-06-26T20:48:19.924Z,16.23
2019-06-26T20:50:49.084Z,15.27
2019-06-26T20:53:18.069Z,15.07
2019-06-26T20:55:47.168Z,15.13
2019-06-26T20:58:16.223Z,15.80
2019-06-26T21:00:45.189Z,15.87
2019-06-26T21:03:14.251Z,16.87
2019-06-26T21:05:43.166Z,14.77
2019-06-26T21:08:12.194Z,15.87
2019-06-26T21:10:41.308Z,14.80
2019-06-26T21:13:10.466Z,15.93
2019-06-26T21:15:40.733Z,15.13
2019-06-26T21:18:09.932Z,15.00
2019-06-26T21:20:39.079Z,13.83
2019-06-26T21:23:17.826Z,16.20
2019-06-26T21:25:39.626Z,15.97
2019-06-26T21:28:09.288Z,16.40
2019-06-26T21:30:38.747Z,15.33
2019-06-26T21:33:10.837Z,16.63
2019-06-26T21:35:40.023Z,14.30
2019-06-26T21:38:09.154Z,15.37
2019-06-26T21:40:38.240Z,15.47
2019-06-26T21:43:07.877Z,14.93
2019-06-26T21:45:45.601Z,15.77
2019-06-26T21:48:16.775Z,16.53
2019-06-26T21:50:45.824Z,16.93
2019-06-26T21:53:15.920Z,15.47
2019-06-26T21:55:45.822Z,16.60
2019-06-26T21:58:14.991Z,15.80
2019-06-26T22:00:44.342Z,16.43
2019-06-26T22:03:13.534Z,15.87
2019-06-26T22:05:42.654Z,16.27
2019-06-26T22:08:11.690Z,16.63
2019-06-26T22:10:40.740Z,18.10
2019-06-26T22:13:09.856Z,15.73
2019-06-26T22:15:38.982Z,17.97
2019-06-26T22:18:08.107Z,17.13
2019-06-26T22:20:37.220Z,19.87
2019-06-26T22:23:06.352Z,17.47
2019-06-26T22:25:49.892Z,17.07
2019-06-26T22:28:06.904Z,18.10
2019-06-26T22:30:36.056Z,18.50
2019-06-26T22:33:05.043Z,18.27
2019-06-26T22:35:34.042Z,18.80
2019-06-26T22:38:03.057Z,19.90
2019-06-26T22:40:32.255Z,20.30
2019-06-26T22:43:01.282Z,19.73
2019-06-26T22:45:30.219Z,20.40
2019-06-26T22:47:59.200Z,21.70
2019-06-26T22:50:28.265Z,21.17
2019-06-26T22:52:57.147Z,23.10
2019-06-26T22:55:26.235Z,20.50
2019-06-26T22:57:55.235Z,21.40
2019-06-26T23:00:24.301Z,23.00
2019-06-26T23:02:53.336Z,23.50
2019-06-26T23:05:22.371Z,22.70
2019-06-26T23:07:51.462Z,23.70
2019-06-26T23:10:20.651Z,23.93
2019-06-26T23:12:49.815Z,24.17
2019-06-26T23:15:19.355Z,22.23
2019-06-26T23:17:48.479Z,22.90
2019-06-26T23:20:17.526Z,24.50
2019-06-26T23:22:46.490Z,23.40
2019-06-26T23:25:15.576Z,22.97
2019-06-26T23:27:44.727Z,22.33
2019-06-26T23:30:17.463Z,23.40
2019-06-26T23:32:46.361Z,23.67
2019-06-26T23:35:15.375Z,24.40
2019-06-26T23:37:44.547Z,23.63
2019-06-26T23:40:13.514Z,23.10
2019-06-26T23:42:42.524Z,23.47
2019-06-26T23:45:11.624Z,24.40
2019-06-26T23:47:40.557Z,23.43
2019-06-26T23:50:09.650Z,22.67
2019-06-26T23:52:38.659Z,24.60
2019-06-26T23:55:07.737Z,24.73
2019-06-26T23:57:41.557Z,24.10
